Time;durP1;ratioP1;P1;durP2;ratioP2;P2;SDS_P1;SDS_P2;PMS_P1;PMS_P2;Temp;Humidity;BMP_temperature;BMP_pressure;BME280_temperature;BME280_humidity;BME280_pressure;Samples;Min_cycle;Max_cycle;Signal;HPM_P1;HPM_P2
2023/03/25 00:02:26;;;;;;;14.80;1.60;;;9.90;99.90;;;;;;4933047;29;20067;-52
2023/03/25 00:04:53;;;;;;;10.02;1.58;;;9.90;99.90;;;;;;4931624;29;20066;-49
2023/03/25 00:07:20;;;;;;;11.50;2.03;;;9.90;99.90;;;;;;4932689;29;20126;-50
2023/03/25 00:09:46;;;;;;;14.15;2.25;;;9.90;99.90;;;;;;4932741;29;20047;-50
2023/03/25 00:12:14;;;;;;;9.60;2.03;;;9.90;99.90;;;;;;4932773;29;20032;-49
2023/03/25 00:14:41;;;;;;;7.22;1.40;;;9.90;99.90;;;;;;4931344;29;20082;-48
2023/03/25 00:17:09;;;;;;;9.95;2.55;;;9.80;99.90;;;;;;4932704;29;20043;-48
2023/03/25 00:19:35;;;;;;;10.45;1.95;;;9.80;99.90;;;;;;4936349;29;20039;-47
2023/03/25 00:22:01;;;;;;;10.23;1.80;;;9.90;99.90;;;;;;4936438;29;20035;-51
2023/03/25 00:24:27;;;;;;;13.48;2.22;;;9.80;99.90;;;;;;4936560;29;20357;-49
2023/03/25 00:26:53;;;;;;;9.75;1.60;;;9.80;99.90;;;;;;4936614;29;20043;-50
2023/03/25 00:29:19;;;;;;;14.40;2.30;;;9.80;99.90;;;;;;4934960;29;20054;-48
2023/03/25 00:31:45;;;;;;;8.95;1.73;;;9.80;99.90;;;;;;4936253;29;20092;-49
2023/03/25 00:34:13;;;;;;;10.90;1.88;;;9.80;99.90;;;;;;4936198;29;20036;-48
2023/03/25 00:36:40;;;;;;;9.15;2.00;;;9.70;99.90;;;;;;4936588;29;20047;-49
2023/03/25 00:39:07;;;;;;;13.32;2.00;;;9.70;99.90;;;;;;4919329;29;20066;-49
2023/03/25 00:41:35;;;;;;;10.77;1.80;;;9.70;99.90;;;;;;4936511;29;20463;-47
2023/03/25 00:44:02;;;;;;;11.80;2.33;;;9.60;99.90;;;;;;4935895;29;20039;-49
2023/03/25 00:46:30;;;;;;;13.45;2.22;;;9.50;99.90;;;;;;4934868;29;20051;-47
2023/03/25 00:48:57;;;;;;;10.45;1.60;;;9.50;99.90;;;;;;4935590;29;20039;-50
2023/03/25 00:51:24;;;;;;;13.52;1.85;;;9.50;99.90;;;;;;4935228;29;20055;-49
2023/03/25 00:53:55;;;;;;;11.20;1.90;;;9.50;99.90;;;;;;4935661;29;20051;-47
2023/03/25 00:56:23;;;;;;;10.63;2.20;;;9.50;99.90;;;;;;4935838;29;20040;-51
2023/03/25 00:58:49;;;;;;;9.65;2.10;;;9.40;99.90;;;;;;4936171;29;20039;-48
2023/03/25 01:01:22;;;;;;;11.57;1.73;;;9.40;99.90;;;;;;4936059;29;20432;-49
2023/03/25 01:03:56;;;;;;;13.02;2.53;;;9.40;99.90;;;;;;4935933;29;20119;-48
2023/03/25 01:06:27;;;;;;;12.73;2.05;;;9.40;99.90;;;;;;4935654;29;20054;-50
2023/03/25 01:08:55;;;;;;;14.15;2.60;;;9.40;99.90;;;;;;4935946;29;20040;-49
2023/03/25 01:11:25;;;;;;;14.48;2.22;;;9.40;99.90;;;;;;4917296;29;20043;-50
2023/03/25 01:13:51;;;;;;;11.77;1.95;;;9.40;99.90;;;;;;4934908;29;20484;-51
2023/03/25 01:16:17;;;;;;;17.77;2.60;;;9.30;99.90;;;;;;4935558;29;20379;-49
2023/03/25 01:18:43;;;;;;;11.15;1.95;;;9.30;99.90;;;;;;4935508;29;20063;-46
2023/03/25 01:21:09;;;;;;;12.65;2.30;;;9.20;99.90;;;;;;4935218;29;20391;-47
2023/03/25 01:23:35;;;;;;;15.10;2.33;;;9.20;99.90;;;;;;4935561;29;20044;-51
2023/03/25 01:26:00;;;;;;;12.60;2.75;;;9.10;99.90;;;;;;4935463;29;20531;-50
2023/03/25 01:28:27;;;;;;;13.82;2.97;;;9.00;99.90;;;;;;4933396;29;20038;-46
2023/03/25 01:31:00;;;;;;;15.88;3.00;;;9.10;99.90;;;;;;4935333;29;20391;-49
2023/03/25 01:33:26;;;;;;;14.93;2.75;;;8.90;99.90;;;;;;4931756;29;20043;-48
2023/03/25 01:35:52;;;;;;;16.80;3.10;;;8.90;99.90;;;;;;4935326;29;20130;-48
2023/03/25 01:38:18;;;;;;;9.98;2.13;;;8.90;99.90;;;;;;4934918;29;20487;-48
2023/03/25 01:40:45;;;;;;;15.23;2.53;;;8.90;99.90;;;;;;4935135;29;20051;-49
2023/03/25 01:43:14;;;;;;;17.00;2.60;;;8.90;99.90;;;;;;4934865;29;20039;-47
2023/03/25 01:45:40;;;;;;;16.90;2.67;;;8.90;99.90;;;;;;4934986;29;20054;-49
2023/03/25 01:48:17;;;;;;;15.23;2.15;;;8.80;99.90;;;;;;4934971;29;20039;-49
2023/03/25 01:50:50;;;;;;;18.15;2.80;;;8.80;99.90;;;;;;4933792;29;20083;-50
2023/03/25 01:53:15;;;;;;;13.15;2.60;;;8.70;99.90;;;;;;4934514;29;20087;-53
2023/03/25 01:55:43;;;;;;;17.05;3.38;;;8.80;99.90;;;;;;4934781;29;20150;-47
2023/03/25 01:58:12;;;;;;;19.98;2.72;;;8.70;99.90;;;;;;4934813;29;20032;-48
2023/03/25 02:00:43;;;;;;;16.73;2.85;;;8.70;99.90;;;;;;4934945;29;20563;-51
2023/03/25 02:03:10;;;;;;;19.30;2.60;;;8.60;99.90;;;;;;4934923;29;20043;-49
2023/03/25 02:05:54;;;;;;;13.50;2.60;;;8.70;99.90;;;;;;4934068;29;20040;-51
2023/03/25 02:08:21;;;;;;;13.77;2.97;;;8.60;99.90;;;;;;4934565;29;20035;-49
2023/03/25 02:10:47;;;;;;;13.45;2.72;;;8.60;99.90;;;;;;4934277;29;20039;-47
2023/03/25 02:13:14;;;;;;;13.52;2.50;;;8.70;99.90;;;;;;4934499;29;20043;-50
2023/03/25 02:16:07;;;;;;;18.23;2.60;;;8.70;99.90;;;;;;4934342;29;20046;-50
2023/03/25 02:19:00;;;;;;;15.82;2.65;;;8.60;99.90;;;;;;4926229;29;20048;-48
2023/03/25 02:21:58;;;;;;;15.35;3.13;;;8.70;99.90;;;;;;4933976;29;20048;-49
2023/03/25 02:24:42;;;;;;;19.08;2.95;;;8.70;99.90;;;;;;4917326;29;20044;-47
2023/03/25 02:27:14;;;;;;;13.75;2.90;;;8.70;99.90;;;;;;4934535;29;20047;-51
2023/03/25 02:29:57;;;;;;;16.73;2.72;;;8.60;99.90;;;;;;4933401;29;20090;-46
2023/03/25 02:32:55;;;;;;;14.88;2.33;;;8.70;99.90;;;;;;4934330;29;20036;-46
2023/03/25 02:35:59;;;;;;;14.57;2.80;;;8.70;99.90;;;;;;4934429;29;20492;-48
2023/03/25 02:38:36;;;;;;;18.63;2.67;;;8.70;99.90;;;;;;4916903;29;20139;-46
2023/03/25 02:41:05;;;;;;;14.43;2.45;;;8.70;99.90;;;;;;4933330;29;20205;-47
2023/03/25 02:43:39;;;;;;;17.15;3.13;;;8.50;99.90;;;;;;4933742;29;20091;-46
2023/03/25 02:46:12;;;;;;;16.80;2.63;;;8.70;99.90;;;;;;4933996;29;20040;-53
2023/03/25 02:48:41;;;;;;;13.80;2.88;;;8.80;99.90;;;;;;4933743;29;20118;-51
2023/03/25 02:51:15;;;;;;;18.27;2.70;;;8.80;99.90;;;;;;4933897;29;20039;-48
2023/03/25 02:53:45;;;;;;;14.15;2.40;;;8.80;99.90;;;;;;4932395;29;20619;-46
2023/03/25 02:56:15;;;;;;;16.95;3.30;;;8.80;99.90;;;;;;4932272;29;20080;-50
2023/03/25 02:58:44;;;;;;;16.08;2.72;;;8.80;99.90;;;;;;4932645;29;20040;-52
2023/03/25 03:01:13;;;;;;;21.95;2.97;;;8.70;99.90;;;;;;4933718;29;20110;-47
2023/03/25 03:03:39;;;;;;;20.15;2.92;;;8.70;99.90;;;;;;4933664;29;20111;-49
2023/03/25 03:06:06;;;;;;;22.67;3.08;;;8.80;99.90;;;;;;4933527;29;20538;-48
2023/03/25 03:08:50;;;;;;;14.90;2.75;;;8.70;99.90;;;;;;4933683;29;20126;-49
2023/03/25 03:11:37;;;;;;;18.15;3.08;;;8.80;99.90;;;;;;4933553;29;20075;-48
2023/03/25 03:14:47;;;;;;;15.43;2.65;;;8.70;99.90;;;;;;4933924;29;20078;-48
2023/03/25 03:17:21;;;;;;;14.98;3.13;;;8.70;99.90;;;;;;4921962;29;20043;-49
2023/03/25 03:20:18;;;;;;;14.38;3.15;;;8.70;99.90;;;;;;4932384;29;20035;-49
2023/03/25 03:22:51;;;;;;;17.25;3.30;;;8.70;99.90;;;;;;4932939;29;20048;-49
2023/03/25 03:25:20;;;;;;;12.20;2.67;;;8.70;99.90;;;;;;4932100;29;20047;-49
2023/03/25 03:28:15;;;;;;;15.15;2.85;;;8.70;99.90;;;;;;4933156;29;20118;-46
2023/03/25 03:30:47;;;;;;;9.75;2.22;;;8.60;99.90;;;;;;4933155;29;20107;-49
2023/03/25 03:33:32;;;;;;;13.52;3.35;;;8.60;99.90;;;;;;4933056;29;20054;-47
2023/03/25 03:36:09;;;;;;;12.55;2.72;;;8.60;99.90;;;;;;4933369;29;20118;-49
2023/03/25 03:38:46;;;;;;;14.80;2.85;;;8.60;99.90;;;;;;4933154;29;20156;-49
2023/03/25 03:41:18;;;;;;;12.85;3.00;;;8.60;99.90;;;;;;4933243;29;20107;-48
2023/03/25 03:43:55;;;;;;;13.57;2.78;;;8.70;99.90;;;;;;4933059;29;20093;-49
2023/03/25 03:46:42;;;;;;;15.43;2.97;;;8.60;99.90;;;;;;4933023;29;20126;-49
2023/03/25 03:49:16;;;;;;;16.35;3.10;;;8.60;99.90;;;;;;4932855;29;20487;-49
2023/03/25 03:51:49;;;;;;;18.23;3.30;;;8.60;99.90;;;;;;4932605;29;20046;-49
2023/03/25 03:54:29;;;;;;;16.87;3.63;;;8.60;99.90;;;;;;4929798;29;20052;-50
2023/03/25 03:57:01;;;;;;;16.60;3.40;;;8.60;99.90;;;;;;4932003;29;20102;-51
2023/03/25 03:59:57;;;;;;;14.90;4.15;;;8.60;99.90;;;;;;4932694;29;20459;-48
2023/03/25 04:02:46;;;;;;;19.13;4.57;;;8.70;99.90;;;;;;4932180;29;20535;-46
2023/03/25 04:05:15;;;;;;;15.55;3.80;;;8.70;99.90;;;;;;4932878;29;20039;-48
2023/03/25 04:07:57;;;;;;;14.50;3.45;;;8.70;99.90;;;;;;4933133;29;20494;-49
2023/03/25 04:10:51;;;;;;;16.58;3.88;;;8.70;99.90;;;;;;4931850;29;20542;-49
2023/03/25 04:13:19;;;;;;;21.02;3.80;;;8.70;99.90;;;;;;4932911;29;20036;-48
2023/03/25 04:15:45;;;;;;;16.50;3.03;;;8.60;99.90;;;;;;4915790;29;20044;-47
2023/03/25 04:18:11;;;;;;;17.52;3.50;;;8.70;99.90;;;;;;4915533;29;20042;-49
2023/03/25 04:20:43;;;;;;;17.80;3.60;;;8.70;99.90;;;;;;4932607;29;20040;-49
2023/03/25 04:23:15;;;;;;;18.25;3.45;;;8.70;99.90;;;;;;4932123;29;20036;-48
2023/03/25 04:25:48;;;;;;;22.60;4.10;;;8.70;99.90;;;;;;4932620;29;20047;-47
2023/03/25 04:28:16;;;;;;;16.33;3.43;;;8.70;99.90;;;;;;4931431;29;20404;-49
2023/03/25 04:30:45;;;;;;;27.65;4.55;;;8.60;99.90;;;;;;4932426;29;20044;-48
2023/03/25 04:33:12;;;;;;;17.33;3.80;;;8.60;99.90;;;;;;4932730;29;20386;-47
2023/03/25 04:35:39;;;;;;;15.50;3.83;;;8.50;99.90;;;;;;4932730;29;20103;-49
2023/03/25 04:38:05;;;;;;;15.90;3.30;;;8.50;99.90;;;;;;4932449;29;20519;-51
2023/03/25 04:40:31;;;;;;;14.88;3.50;;;8.60;99.90;;;;;;4932626;29;20439;-46
2023/03/25 04:42:57;;;;;;;20.52;4.13;;;8.60;99.90;;;;;;4932781;29;20031;-47
2023/03/25 04:45:24;;;;;;;19.13;3.83;;;8.50;99.90;;;;;;4933012;29;20123;-47
2023/03/25 04:47:53;;;;;;;18.10;4.10;;;8.50;99.90;;;;;;4932842;29;20068;-48
2023/03/25 04:50:26;;;;;;;18.60;3.60;;;8.50;99.90;;;;;;4932789;29;20079;-49
2023/03/25 04:52:53;;;;;;;12.88;3.10;;;8.40;99.90;;;;;;4931207;29;20135;-47
2023/03/25 04:55:20;;;;;;;14.60;3.88;;;8.50;99.90;;;;;;4932492;29;20059;-51
2023/03/25 04:57:48;;;;;;;17.98;3.95;;;8.40;99.90;;;;;;4932021;29;20115;-49
2023/03/25 05:00:16;;;;;;;18.63;4.05;;;8.50;99.90;;;;;;4932554;29;20040;-49
2023/03/25 05:02:50;;;;;;;18.38;3.60;;;8.40;99.90;;;;;;4932425;29;20051;-48
2023/03/25 05:05:17;;;;;;;18.35;3.72;;;8.50;99.90;;;;;;4935417;29;20527;-51
2023/03/25 05:07:45;;;;;;;20.15;4.30;;;8.50;99.90;;;;;;4932608;29;20040;-48
2023/03/25 05:10:12;;;;;;;14.45;4.10;;;8.40;99.90;;;;;;4934222;29;20075;-49
2023/03/25 05:12:37;;;;;;;20.20;3.90;;;8.50;99.90;;;;;;4934681;29;20102;-50
2023/03/25 05:15:04;;;;;;;17.38;4.63;;;8.40;99.90;;;;;;4936314;29;20447;-49
2023/03/25 05:17:29;;;;;;;20.83;4.03;;;8.40;99.90;;;;;;4935578;29;20127;-48
2023/03/25 05:19:55;;;;;;;26.70;4.45;;;8.30;99.90;;;;;;4935641;29;20156;-50
2023/03/25 05:22:22;;;;;;;22.23;4.43;;;8.30;99.90;;;;;;4934293;29;20515;-50
2023/03/25 05:24:49;;;;;;;14.25;4.03;;;8.20;99.90;;;;;;4935423;29;20144;-51
2023/03/25 05:27:18;;;;;;;16.10;4.45;;;8.30;99.90;;;;;;4935865;29;20106;-50
2023/03/25 05:29:45;;;;;;;20.42;4.50;;;8.30;99.90;;;;;;4935836;29;20403;-51
2023/03/25 05:32:16;;;;;;;21.00;4.25;;;8.20;99.90;;;;;;4917858;29;20064;-51
2023/03/25 05:34:46;;;;;;;25.90;4.88;;;8.20;99.90;;;;;;4935520;29;20035;-49
2023/03/25 05:37:14;;;;;;;17.02;4.32;;;8.30;99.90;;;;;;4935090;29;20035;-46
2023/03/25 05:39:40;;;;;;;19.83;4.05;;;8.20;99.90;;;;;;4935530;29;20039;-51
2023/03/25 05:42:06;;;;;;;23.55;4.25;;;8.40;99.90;;;;;;4934002;29;20331;-49
2023/03/25 05:44:31;;;;;;;23.10;3.80;;;8.20;99.90;;;;;;4935167;29;20083;-47
2023/03/25 05:47:00;;;;;;;16.75;3.40;;;8.30;99.90;;;;;;4934996;29;20040;-48
2023/03/25 05:49:27;;;;;;;12.35;3.03;;;8.40;99.90;;;;;;4917792;29;20036;-49
2023/03/25 05:51:54;;;;;;;15.25;2.92;;;8.40;99.90;;;;;;4934884;29;20061;-48
2023/03/25 05:54:23;;;;;;;21.98;3.47;;;8.40;99.90;;;;;;4934619;29;20059;-47
2023/03/25 05:56:49;;;;;;;22.15;3.20;;;8.30;99.90;;;;;;4922317;29;20047;-51
2023/03/25 05:59:15;;;;;;;18.25;3.10;;;8.40;99.90;;;;;;4934197;29;20114;-48
2023/03/25 06:01:44;;;;;;;14.02;2.70;;;8.40;99.90;;;;;;4931655;29;20054;-52
2023/03/25 06:04:11;;;;;;;19.05;2.75;;;8.30;99.90;;;;;;4917790;29;20056;-50
2023/03/25 06:06:38;;;;;;;18.75;2.75;;;8.40;99.90;;;;;;4917566;29;20048;-48
2023/03/25 06:09:05;;;;;;;18.63;3.15;;;8.40;99.90;;;;;;4934593;29;20047;-46
2023/03/25 06:11:36;;;;;;;17.30;2.83;;;8.40;99.90;;;;;;4917300;29;20168;-49
2023/03/25 06:14:03;;;;;;;19.88;2.25;;;8.40;99.90;;;;;;4935181;29;20440;-49
2023/03/25 06:16:29;;;;;;;16.23;2.42;;;8.50;99.90;;;;;;4934029;29;20061;-47
2023/03/25 06:18:58;;;;;;;16.02;2.30;;;8.50;99.90;;;;;;4934908;29;20538;-51
2023/03/25 06:21:28;;;;;;;16.15;2.97;;;8.50;99.90;;;;;;4934389;29;20036;-47
2023/03/25 06:23:54;;;;;;;16.98;2.90;;;8.40;99.90;;;;;;4917109;29;20048;-48
2023/03/25 06:26:22;;;;;;;21.90;3.28;;;8.40;99.90;;;;;;4934981;29;20412;-50
2023/03/25 06:28:48;;;;;;;16.67;3.20;;;8.50;99.90;;;;;;4934389;29;20040;-47
2023/03/25 06:31:25;;;;;;;22.83;3.35;;;8.40;99.90;;;;;;4934726;29;20039;-48
2023/03/25 06:33:51;;;;;;;22.40;4.00;;;8.40;99.90;;;;;;4934483;29;20035;-48
2023/03/25 06:36:18;;;;;;;18.48;3.47;;;8.50;99.90;;;;;;4934418;29;20486;-48
2023/03/25 06:38:46;;;;;;;19.52;3.63;;;8.60;99.90;;;;;;4934213;29;20040;-52
2023/03/25 06:41:12;;;;;;;19.30;3.33;;;8.60;99.90;;;;;;4931244;29;20051;-48
2023/03/25 06:43:38;;;;;;;16.13;2.83;;;8.60;99.90;;;;;;4934222;29;20047;-48
2023/03/25 06:46:04;;;;;;;25.23;3.75;;;8.70;99.90;;;;;;4934491;29;20086;-51
2023/03/25 06:48:30;;;;;;;12.95;2.63;;;8.80;99.90;;;;;;4934328;29;20058;-49
2023/03/25 06:50:56;;;;;;;22.35;3.80;;;8.90;99.90;;;;;;4934051;29;20053;-51
2023/03/25 06:53:21;;;;;;;18.35;3.20;;;9.00;99.90;;;;;;4933232;29;20055;-51
2023/03/25 06:55:47;;;;;;;28.20;3.88;;;9.00;99.90;;;;;;4934150;29;20048;-50
2023/03/25 06:58:13;;;;;;;21.17;3.47;;;9.10;99.90;;;;;;4933732;29;20036;-49
2023/03/25 07:00:39;;;;;;;21.77;3.33;;;9.10;99.90;;;;;;4932611;29;20075;-50
2023/03/25 07:03:04;;;;;;;19.10;3.83;;;9.10;99.90;;;;;;4932420;29;20044;-50
2023/03/25 07:05:30;;;;;;;22.15;3.25;;;9.10;99.90;;;;;;4933621;29;20031;-46
2023/03/25 07:07:57;;;;;;;20.88;3.08;;;9.10;99.90;;;;;;4932445;29;20040;-46
2023/03/25 07:10:22;;;;;;;21.73;3.25;;;9.00;99.90;;;;;;4931491;29;20039;-46
2023/03/25 07:12:48;;;;;;;21.42;3.78;;;9.00;99.90;;;;;;4914492;29;20067;-52
2023/03/25 07:15:14;;;;;;;25.65;3.53;;;8.80;99.90;;;;;;4932808;29;20036;-48
2023/03/25 07:17:41;;;;;;;23.77;3.53;;;8.80;99.90;;;;;;4933774;29;20044;-49
2023/03/25 07:20:08;;;;;;;23.60;3.35;;;8.80;99.90;;;;;;4916356;29;20043;-49
2023/03/25 07:22:34;;;;;;;22.48;3.30;;;8.80;99.90;;;;;;4931067;29;20507;-47
2023/03/25 07:25:00;;;;;;;22.38;3.17;;;8.60;99.90;;;;;;4931954;29;20141;-47
2023/03/25 07:27:26;;;;;;;23.08;3.30;;;8.70;99.90;;;;;;4934438;28;20389;-50
2023/03/25 07:29:52;;;;;;;26.60;3.67;;;8.50;99.90;;;;;;4934575;29;20125;-50
2023/03/25 07:32:18;;;;;;;21.65;2.97;;;8.60;99.90;;;;;;4931063;29;20032;-50
2023/03/25 07:34:43;;;;;;;16.88;2.60;;;8.60;99.90;;;;;;4933741;29;20085;-50
2023/03/25 07:37:09;;;;;;;22.10;3.20;;;8.60;99.90;;;;;;4932654;29;20039;-48
2023/03/25 07:39:35;;;;;;;24.17;3.47;;;8.60;99.90;;;;;;4931771;29;20027;-49
2023/03/25 07:42:01;;;;;;;24.35;3.50;;;8.60;99.90;;;;;;4933308;29;20459;-48
2023/03/25 07:44:27;;;;;;;26.60;3.58;;;8.70;99.90;;;;;;4932127;29;20518;-47
2023/03/25 07:46:52;;;;;;;22.02;3.95;;;8.70;99.90;;;;;;4933238;29;20498;-46
2023/03/25 07:49:18;;;;;;;29.05;3.50;;;8.80;99.90;;;;;;4932637;29;20042;-47
2023/03/25 07:51:44;;;;;;;20.25;4.10;;;8.70;99.90;;;;;;4932968;29;20627;-47
2023/03/25 07:54:10;;;;;;;28.15;3.53;;;8.80;99.90;;;;;;4926832;29;20054;-50
2023/03/25 07:56:37;;;;;;;22.08;3.72;;;8.80;99.90;;;;;;4915475;29;20040;-46
2023/03/25 07:59:03;;;;;;;22.20;3.75;;;8.90;99.90;;;;;;4930039;29;20507;-49
2023/03/25 08:01:29;;;;;;;19.25;3.00;;;9.00;99.90;;;;;;4929284;29;20043;-46
2023/03/25 08:03:56;;;;;;;21.85;3.20;;;8.90;99.90;;;;;;4928674;29;20542;-46
2023/03/25 08:06:22;;;;;;;25.08;3.65;;;9.00;99.90;;;;;;4932236;29;20395;-49
2023/03/25 08:08:47;;;;;;;20.88;3.15;;;8.90;99.90;;;;;;4910786;29;20048;-50
2023/03/25 08:11:13;;;;;;;22.00;3.30;;;8.90;99.90;;;;;;4895344;29;20403;-45
2023/03/25 08:13:39;;;;;;;19.40;3.00;;;8.90;99.90;;;;;;4931663;29;20495;-47
2023/03/25 08:16:10;;;;;;;21.52;3.35;;;9.00;99.90;;;;;;4931477;29;20023;-48
2023/03/25 08:18:36;;;;;;;18.48;3.25;;;9.00;99.90;;;;;;4930774;29;20035;-50
2023/03/25 08:21:02;;;;;;;24.65;3.45;;;8.90;99.90;;;;;;4932209;29;20036;-49
2023/03/25 08:23:28;;;;;;;21.63;3.45;;;9.00;99.90;;;;;;4926054;29;20425;-46
2023/03/25 08:25:54;;;;;;;19.95;3.38;;;9.00;99.90;;;;;;4933193;29;20069;-47
2023/03/25 08:28:22;;;;;;;26.25;3.85;;;9.00;99.90;;;;;;4932878;29;20396;-51
2023/03/25 08:30:54;;;;;;;22.27;3.95;;;9.00;99.90;;;;;;4931290;29;20028;-50
2023/03/25 08:33:25;;;;;;;23.33;3.50;;;9.10;99.90;;;;;;4931647;29;20055;-47
2023/03/25 08:35:51;;;;;;;19.90;3.40;;;9.10;99.90;;;;;;4931705;29;20039;-47
2023/03/25 08:38:17;;;;;;;22.35;3.42;;;9.00;99.90;;;;;;4930913;28;20032;-49
2023/03/25 08:40:43;;;;;;;17.45;3.45;;;9.10;99.90;;;;;;4937894;29;20122;-49
2023/03/25 08:43:10;;;;;;;21.83;3.20;;;9.10;99.90;;;;;;4936072;29;20067;-49
2023/03/25 08:45:36;;;;;;;25.13;3.90;;;9.10;99.90;;;;;;4937003;29;20032;-46
2023/03/25 08:48:02;;;;;;;18.63;2.92;;;9.20;99.90;;;;;;4936889;29;20481;-49
2023/03/25 08:50:29;;;;;;;21.48;4.65;;;9.20;99.90;;;;;;4937336;29;20392;-48
2023/03/25 08:52:57;;;;;;;19.17;2.92;;;9.20;99.90;;;;;;4927911;29;20079;-48
2023/03/25 08:55:24;;;;;;;17.42;3.03;;;9.20;99.90;;;;;;4933101;29;20336;-50
2023/03/25 08:57:50;;;;;;;21.83;3.22;;;9.30;99.90;;;;;;4936540;29;20032;-48
2023/03/25 09:00:16;;;;;;;20.05;2.83;;;9.30;99.90;;;;;;4936435;29;20042;-48
2023/03/25 09:02:42;;;;;;;18.20;3.00;;;9.50;99.90;;;;;;4934679;29;20059;-47
2023/03/25 09:05:10;;;;;;;17.30;3.25;;;9.40;99.90;;;;;;4934516;29;20043;-48
2023/03/25 09:07:36;;;;;;;21.02;3.13;;;9.50;99.90;;;;;;4935566;29;20091;-49
2023/03/25 09:10:03;;;;;;;17.85;3.05;;;9.50;99.90;;;;;;4936372;29;20059;-48
2023/03/25 09:12:29;;;;;;;20.13;3.30;;;9.50;99.90;;;;;;4929322;29;20392;-48
2023/03/25 09:14:55;;;;;;;16.95;2.85;;;9.50;99.90;;;;;;4936527;29;20051;-48
2023/03/25 09:17:21;;;;;;;20.65;3.78;;;9.50;99.90;;;;;;4935668;29;20114;-50
2023/03/25 09:19:46;;;;;;;14.07;2.78;;;9.50;99.90;;;;;;4932948;29;20067;-49
2023/03/25 09:22:13;;;;;;;21.30;2.88;;;9.50;99.90;;;;;;4929587;29;20163;-51
2023/03/25 09:24:39;;;;;;;17.35;2.75;;;9.50;99.90;;;;;;4934183;29;20036;-48
2023/03/25 09:27:05;;;;;;;19.23;3.42;;;9.50;99.90;;;;;;4935914;29;20031;-50
2023/03/25 09:29:31;;;;;;;17.95;2.78;;;9.50;99.90;;;;;;4935556;29;20044;-48
2023/03/25 09:31:58;;;;;;;19.65;3.13;;;9.50;99.90;;;;;;4934338;29;20040;-48
2023/03/25 09:34:25;;;;;;;21.50;2.75;;;9.70;99.90;;;;;;4935762;29;20040;-48
2023/03/25 09:36:52;;;;;;;21.05;2.72;;;9.70;99.90;;;;;;4934376;29;20031;-45
2023/03/25 09:39:18;;;;;;;17.38;2.63;;;9.70;99.90;;;;;;4931785;29;20566;-49
2023/03/25 09:42:11;;;;;;;15.38;2.83;;;9.80;99.90;;;;;;4925592;29;20084;-48
2023/03/25 09:44:59;;;;;;;18.65;2.85;;;9.80;99.90;;;;;;4923170;29;20075;-49
2023/03/25 09:47:28;;;;;;;13.88;2.50;;;9.80;99.90;;;;;;4927504;29;20051;-50
2023/03/25 09:49:57;;;;;;;17.98;2.40;;;9.70;99.90;;;;;;4928041;29;20122;-50
2023/03/25 09:53:00;;;;;;;18.77;2.80;;;9.60;99.90;;;;;;4934784;29;20510;-47
2023/03/25 09:55:31;;;;;;;19.67;3.20;;;9.70;99.90;;;;;;4912709;29;20492;-47
2023/03/25 09:58:14;;;;;;;19.92;2.60;;;9.70;99.90;;;;;;4918042;29;20526;-49
2023/03/25 10:00:41;;;;;;;18.80;3.30;;;9.80;99.90;;;;;;4934973;29;20115;-49
2023/03/25 10:03:16;;;;;;;17.55;2.85;;;9.90;99.90;;;;;;4934340;29;20161;-48
2023/03/25 10:05:57;;;;;;;20.20;2.78;;;10.00;99.90;;;;;;4934889;29;20440;-48
2023/03/25 10:08:32;;;;;;;18.67;2.55;;;9.90;99.90;;;;;;4934887;29;20524;-47
2023/03/25 10:11:10;;;;;;;14.02;2.45;;;10.00;99.90;;;;;;4934080;29;20058;-49
2023/03/25 10:14:00;;;;;;;17.45;2.78;;;9.90;99.90;;;;;;4933440;29;20032;-51
2023/03/25 10:17:11;;;;;;;15.25;2.10;;;10.10;99.90;;;;;;4933195;29;20539;-46
2023/03/25 10:19:58;;;;;;;12.85;2.42;;;10.20;99.90;;;;;;4916238;29;20076;-50
2023/03/25 10:22:47;;;;;;;16.67;2.63;;;10.30;99.90;;;;;;4932321;29;20075;-49
2023/03/25 10:25:18;;;;;;;17.35;2.65;;;10.40;99.90;;;;;;4907269;29;20098;-48
2023/03/25 10:27:48;;;;;;;23.02;3.72;;;10.40;99.90;;;;;;4933759;29;20065;-50
2023/03/25 10:30:40;;;;;;;15.77;3.75;;;10.40;99.90;;;;;;4934075;29;20040;-48
2023/03/25 10:33:16;;;;;;;18.92;3.30;;;10.40;99.90;;;;;;4930759;29;20050;-47
2023/03/25 10:35:46;;;;;;;17.45;3.15;;;10.40;99.90;;;;;;4931574;29;20107;-46
2023/03/25 10:38:25;;;;;;;20.67;2.78;;;10.40;99.90;;;;;;4926896;29;20113;-47
2023/03/25 10:41:17;;;;;;;23.17;3.40;;;10.40;99.90;;;;;;4929249;29;20069;-48
2023/03/25 10:43:43;;;;;;;18.20;3.28;;;10.50;99.90;;;;;;4933107;29;20070;-49
2023/03/25 10:46:37;;;;;;;21.95;3.33;;;10.50;99.90;;;;;;4921651;29;20353;-47
2023/03/25 10:49:03;;;;;;;18.33;3.30;;;10.60;99.90;;;;;;4931906;29;20449;-50
2023/03/25 10:51:34;;;;;;;15.05;3.03;;;10.70;99.90;;;;;;4934099;29;20386;-52
2023/03/25 10:54:01;;;;;;;22.88;3.40;;;10.70;99.90;;;;;;4932800;29;20051;-49
2023/03/25 10:56:33;;;;;;;15.90;2.97;;;10.80;99.90;;;;;;4934102;29;20045;-48
2023/03/25 10:59:06;;;;;;;11.00;2.38;;;10.80;99.90;;;;;;4934223;29;20032;-49
2023/03/25 11:01:40;;;;;;;12.85;2.45;;;10.80;99.90;;;;;;4933020;29;20110;-48
2023/03/25 11:04:16;;;;;;;18.92;2.97;;;10.80;99.90;;;;;;4928375;29;20111;-48
2023/03/25 11:06:54;;;;;;;15.35;3.00;;;10.90;99.90;;;;;;4932575;29;20040;-48
2023/03/25 11:09:29;;;;;;;16.30;2.60;;;11.00;99.90;;;;;;4933853;29;20086;-46
2023/03/25 11:11:58;;;;;;;18.33;3.25;;;11.10;99.90;;;;;;4932141;29;20484;-50
2023/03/25 11:14:26;;;;;;;14.00;3.08;;;11.20;99.90;;;;;;4931487;29;20032;-49
2023/03/25 11:17:08;;;;;;;15.30;2.33;;;11.30;99.90;;;;;;4933810;29;20035;-47
2023/03/25 11:19:39;;;;;;;15.82;2.70;;;11.50;99.90;;;;;;4932866;29;20067;-50
2023/03/25 11:22:30;;;;;;;18.30;2.80;;;11.70;99.90;;;;;;4933132;29;20519;-48
2023/03/25 11:25:14;;;;;;;18.75;3.42;;;11.80;99.90;;;;;;4932973;29;20087;-48
2023/03/25 11:27:46;;;;;;;14.95;2.85;;;11.90;99.90;;;;;;4933188;29;20043;-50
2023/03/25 11:30:21;;;;;;;18.52;2.55;;;12.00;99.90;;;;;;4916491;29;20042;-48
2023/03/25 11:33:03;;;;;;;16.58;3.60;;;12.00;99.90;;;;;;4930213;29;20040;-49
2023/03/25 11:35:35;;;;;;;19.25;3.25;;;11.90;99.90;;;;;;4931555;29;20043;-46
2023/03/25 11:38:18;;;;;;;18.85;4.05;;;11.80;99.90;;;;;;4930800;29;20479;-49
2023/03/25 11:40:54;;;;;;;15.40;2.75;;;11.70;99.90;;;;;;4928670;29;20055;-47
2023/03/25 11:43:23;;;;;;;19.60;3.10;;;11.60;99.90;;;;;;4930081;29;20048;-51
2023/03/25 11:45:49;;;;;;;17.25;2.88;;;11.70;99.90;;;;;;4930562;29;20181;-48
2023/03/25 11:48:19;;;;;;;14.50;2.92;;;11.80;99.90;;;;;;4931493;29;20039;-52
2023/03/25 11:51:05;;;;;;;17.83;3.42;;;11.80;99.90;;;;;;4931140;29;20044;-49
2023/03/25 11:53:32;;;;;;;20.25;3.53;;;11.80;99.90;;;;;;4927789;29;20910;-49
2023/03/25 11:56:03;;;;;;;13.48;2.80;;;11.70;99.90;;;;;;4931600;29;20079;-47
2023/03/25 11:58:33;;;;;;;11.10;2.60;;;11.70;99.90;;;;;;4929589;29;20134;-49
2023/03/25 12:01:05;;;;;;;17.40;3.08;;;11.70;99.90;;;;;;4930221;29;20054;-48
2023/03/25 12:03:33;;;;;;;15.23;2.20;;;11.70;99.90;;;;;;4931345;29;20154;-49
2023/03/25 12:06:11;;;;;;;15.75;2.75;;;11.80;99.90;;;;;;4931656;29;20126;-52
2023/03/25 12:09:07;;;;;;;17.55;3.78;;;11.80;99.90;;;;;;4930861;29;20042;-51
2023/03/25 12:12:02;;;;;;;12.55;2.60;;;11.90;99.90;;;;;;4931692;29;20051;-49
2023/03/25 12:14:51;;;;;;;10.48;2.45;;;12.00;99.90;;;;;;4934517;29;20036;-48
2023/03/25 12:17:25;;;;;;;14.85;2.60;;;12.00;99.90;;;;;;4935530;29;20046;-49
2023/03/25 12:20:12;;;;;;;18.98;3.75;;;12.00;99.90;;;;;;4936659;29;20035;-48
2023/03/25 12:22:57;;;;;;;19.60;2.95;;;12.00;99.90;;;;;;4936105;29;20047;-52
2023/03/25 12:25:44;;;;;;;19.27;2.72;;;11.90;99.90;;;;;;4919730;29;20046;-49
2023/03/25 12:28:28;;;;;;;16.27;2.88;;;11.70;99.90;;;;;;4936904;29;20062;-49
2023/03/25 12:31:09;;;;;;;15.07;2.80;;;11.60;99.90;;;;;;4935732;29;20063;-49
2023/03/25 12:34:13;;;;;;;14.80;4.05;;;11.70;99.90;;;;;;4936428;29;20047;-52
2023/03/25 12:37:13;;;;;;;12.88;2.58;;;11.90;99.90;;;;;;4918830;29;20047;-48
2023/03/25 12:39:55;;;;;;;16.63;3.28;;;12.10;99.90;;;;;;4936074;29;20044;-49
2023/03/25 12:42:33;;;;;;;16.27;3.72;;;12.30;99.90;;;;;;4936230;29;20050;-52
2023/03/25 12:45:06;;;;;;;22.60;4.25;;;12.50;99.90;;;;;;4911618;29;23883;-49
2023/03/25 12:47:35;;;;;;;17.90;4.45;;;12.60;99.90;;;;;;4926973;29;20492;-49
2023/03/25 12:50:15;;;;;;;17.15;4.35;;;12.60;99.90;;;;;;4927466;29;20044;-51
2023/03/25 12:53:24;;;;;;;13.27;2.75;;;12.50;99.90;;;;;;4911259;29;20091;-51
2023/03/25 12:55:58;;;;;;;21.20;4.00;;;12.40;99.90;;;;;;4894254;29;20044;-51
2023/03/25 12:58:44;;;;;;;18.10;3.75;;;12.30;99.90;;;;;;4922128;29;20095;-49
2023/03/25 13:01:09;;;;;;;13.60;3.00;;;12.40;99.90;;;;;;4926624;29;20059;-50
2023/03/25 13:04:10;;;;;;;12.48;3.17;;;12.60;99.90;;;;;;4926653;29;20130;-51
2023/03/25 13:06:39;;;;;;;16.08;3.70;;;12.70;99.90;;;;;;4893420;29;20055;-50
2023/03/25 13:09:11;;;;;;;20.92;5.20;;;12.90;99.90;;;;;;4927851;29;20042;-50
2023/03/25 13:11:55;;;;;;;15.88;3.83;;;13.20;99.90;;;;;;4927010;29;20701;-47